Time;durP1;ratioP1;P1;durP2;ratioP2;P2;SDS_P1;SDS_P2;PMS_P1;PMS_P2;Temp;Humidity;BMP_temperature;BMP_pressure;BME280_temperature;BME280_humidity;BME280_pressure;Samples;Min_cycle;Max_cycle;Signal;HPM_P1;HPM_P2
2019/10/08 00:02:20;;;;;;;5.8;2.6;;;;;;;;;;;;;
2019/10/08 00:04:45;;;;;;;4.6;2.9;;;;;;;;;;;;;
2019/10/08 00:07:17;;;;;;;4.6;2.8;;;;;;;;;;;;;
2019/10/08 00:09:36;;;;;;;4.7;2.5;;;;;;;;;;;;;
2019/10/08 00:12:01;;;;;;;6.3;2.8;;;;;;;;;;;;;
2019/10/08 00:14:29;;;;;;;6.5;2.5;;;;;;;;;;;;;
2019/10/08 00:16:54;;;;;;;4.9;2.7;;;;;;;;;;;;;
2019/10/08 00:19:18;;;;;;;2.8;1.9;;;;;;;;;;;;;
2019/10/08 00:21:46;;;;;;;5;2.1;;;;;;;;;;;;;
2019/10/08 00:24:11;;;;;;;4.2;2.1;;;;;;;;;;;;;
2019/10/08 00:26:36;;;;;;;3;2;;;;;;;;;;;;;
2019/10/08 00:29:00;;;;;;;3.2;2;;;;;;;;;;;;;
2019/10/08 00:31:28;;;;;;;3.7;2.3;;;;;;;;;;;;;
2019/10/08 00:33:52;;;;;;;3.9;2.1;;;;;;;;;;;;;
2019/10/08 00:36:17;;;;;;;3.5;2.1;;;;;;;;;;;;;
2019/10/08 00:38:42;;;;;;;2.9;1.7;;;;;;;;;;;;;
2019/10/08 00:41:06;;;;;;;3;1.9;;;;;;;;;;;;;
2019/10/08 00:43:32;;;;;;;4.1;2.2;;;;;;;;;;;;;
2019/10/08 00:45:57;;;;;;;4.3;2;;;;;;;;;;;;;
2019/10/08 00:48:22;;;;;;;4.1;2.1;;;;;;;;;;;;;
2019/10/08 00:50:49;;;;;;;4.3;1.9;;;;;;;;;;;;;
2019/10/08 00:53:22;;;;;;;4.5;2;;;;;;;;;;;;;
2019/10/08 00:55:46;;;;;;;3.7;1.9;;;;;;;;;;;;;
2019/10/08 00:58:11;;;;;;;3.9;1.9;;;;;;;;;;;;;
2019/10/08 01:00:35;;;;;;;5;1.9;;;;;;;;;;;;;
2019/10/08 01:03:02;;;;;;;6.1;2.1;;;;;;;;;;;;;
2019/10/08 01:05:26;;;;;;;4.1;2;;;;;;;;;;;;;
2019/10/08 01:07:53;;;;;;;4.1;2;;;;;;;;;;;;;
2019/10/08 01:10:15;;;;;;;4.6;1.9;;;;;;;;;;;;;
2019/10/08 01:12:43;;;;;;;4.4;2.1;;;;;;;;;;;;;
2019/10/08 01:15:09;;;;;;;3.5;2.3;;;;;;;;;;;;;
2019/10/08 01:17:31;;;;;;;5.2;2;;;;;;;;;;;;;
2019/10/08 01:20:03;;;;;;;3.1;1.8;;;;;;;;;;;;;
2019/10/08 01:24:52;;;;;;;5;1.8;;;;;;;;;;;;;
2019/10/08 01:27:18;;;;;;;2.7;1.7;;;;;;;;;;;;;
2019/10/08 01:29:45;;;;;;;2.5;1.6;;;;;;;;;;;;;
2019/10/08 01:32:08;;;;;;;3.1;1.8;;;;;;;;;;;;;
2019/10/08 01:34:32;;;;;;;2.6;1.6;;;;;;;;;;;;;
2019/10/08 01:37:00;;;;;;;4.2;1.5;;;;;;;;;;;;;
2019/10/08 01:39:23;;;;;;;5;1.7;;;;;;;;;;;;;
2019/10/08 01:41:49;;;;;;;2.9;1.5;;;;;;;;;;;;;
2019/10/08 01:44:13;;;;;;;2.2;1.5;;;;;;;;;;;;;
2019/10/08 01:46:40;;;;;;;4.4;1.9;;;;;;;;;;;;;
2019/10/08 01:49:03;;;;;;;4;2.5;;;;;;;;;;;;;
2019/10/08 01:51:30;;;;;;;5.8;2.6;;;;;;;;;;;;;
2019/10/08 01:53:54;;;;;;;6.4;2.1;;;;;;;;;;;;;
2019/10/08 01:56:19;;;;;;;3.4;2;;;;;;;;;;;;;
2019/10/08 01:58:46;;;;;;;4.1;1.8;;;;;;;;;;;;;
2019/10/08 02:01:12;;;;;;;4.8;1.6;;;;;;;;;;;;;
2019/10/08 02:03:36;;;;;;;2.7;1.8;;;;;;;;;;;;;
2019/10/08 02:06:03;;;;;;;7.6;5.2;;;;;;;;;;;;;
2019/10/08 02:08:27;;;;;;;8.3;4.6;;;;;;;;;;;;;
2019/10/08 02:10:51;;;;;;;5.6;3.8;;;;;;;;;;;;;
2019/10/08 02:13:23;;;;;;;5.8;3.9;;;;;;;;;;;;;
2019/10/08 02:15:44;;;;;;;5.3;3.3;;;;;;;;;;;;;
2019/10/08 02:18:10;;;;;;;4;2.4;;;;;;;;;;;;;
2019/10/08 02:20:38;;;;;;;4.3;2.1;;;;;;;;;;;;;
2019/10/08 02:23:02;;;;;;;4.7;1.9;;;;;;;;;;;;;
2019/10/08 02:25:28;;;;;;;3.9;1.8;;;;;;;;;;;;;
2019/10/08 02:27:56;;;;;;;3.6;1.6;;;;;;;;;;;;;
2019/10/08 02:30:21;;;;;;;2.9;1.7;;;;;;;;;;;;;
2019/10/08 02:32:45;;;;;;;3;1.6;;;;;;;;;;;;;
2019/10/08 02:37:50;;;;;;;3.6;2.2;;;;;;;;;;;;;
2019/10/08 02:40:15;;;;;;;2.8;1.5;;;;;;;;;;;;;
2019/10/08 02:42:42;;;;;;;2.7;1.5;;;;;;;;;;;;;
2019/10/08 02:45:06;;;;;;;4.4;1.6;;;;;;;;;;;;;
2019/10/08 02:47:32;;;;;;;3.1;1.6;;;;;;;;;;;;;
2019/10/08 02:49:56;;;;;;;2.9;1.5;;;;;;;;;;;;;
2019/10/08 02:52:29;;;;;;;3.2;1.5;;;;;;;;;;;;;
2019/10/08 02:54:48;;;;;;;2.4;1.5;;;;;;;;;;;;;
2019/10/08 02:57:13;;;;;;;2.6;1.6;;;;;;;;;;;;;
2019/10/08 02:59:47;;;;;;;2.5;1.5;;;;;;;;;;;;;
2019/10/08 03:02:18;;;;;;;1.8;1.2;;;;;;;;;;;;;
2019/10/08 03:04:42;;;;;;;2;1.3;;;;;;;;;;;;;
2019/10/08 03:07:12;;;;;;;2.2;1.3;;;;;;;;;;;;;
2019/10/08 03:09:34;;;;;;;2.2;1.1;;;;;;;;;;;;;
2019/10/08 03:11:59;;;;;;;3.1;1.5;;;;;;;;;;;;;
2019/10/08 03:14:26;;;;;;;2.3;1.3;;;;;;;;;;;;;
2019/10/08 03:16:52;;;;;;;2.6;1.5;;;;;;;;;;;;;
2019/10/08 03:19:16;;;;;;;2.4;1.6;;;;;;;;;;;;;
2019/10/08 03:21:49;;;;;;;3.5;1.7;;;;;;;;;;;;;
2019/10/08 03:29:05;;;;;;;3.2;2.2;;;;;;;;;;;;;
2019/10/08 03:31:28;;;;;;;4.1;1.8;;;;;;;;;;;;;
2019/10/08 03:33:53;;;;;;;4;2.1;;;;;;;;;;;;;
2019/10/08 03:36:23;;;;;;;4.6;1.8;;;;;;;;;;;;;
2019/10/08 03:38:48;;;;;;;5.6;2.2;;;;;;;;;;;;;
2019/10/08 03:41:15;;;;;;;4.1;1.8;;;;;;;;;;;;;
2019/10/08 03:43:42;;;;;;;3.5;1.8;;;;;;;;;;;;;
2019/10/08 03:46:05;;;;;;;4.8;2.3;;;;;;;;;;;;;
2019/10/08 03:48:31;;;;;;;5.1;2.1;;;;;;;;;;;;;
2019/10/08 03:50:59;;;;;;;4.3;2.4;;;;;;;;;;;;;
2019/10/08 03:53:23;;;;;;;5.4;2.6;;;;;;;;;;;;;
2019/10/08 03:55:51;;;;;;;5.8;2.6;;;;;;;;;;;;;
2019/10/08 03:58:16;;;;;;;5.6;2.5;;;;;;;;;;;;;
2019/10/08 04:02:31;;;;;;;8;3;;;;;;;6.56;88.05762;939.0613;;;;
2019/10/08 04:05:04;;;;;;;5.7;2.7;;;;;;;6.62;87.5498;938.9833;;;;
2019/10/08 04:07:31;;;;;;;7.6;3;;;;;;;6.54;87.74707;938.9208;;;;
2019/10/08 04:10:08;;;;;;;5.3;2.9;;;;;;;6.61;87.28809;938.9639;;;;
2019/10/08 04:12:32;;;;;;;5.2;2.6;;;;;;;6.58;87.43945;938.9178;;;;
2019/10/08 04:14:57;;;;;;;5.3;2.7;;;;;;;6.63;87.01855;938.8283;;;;
2019/10/08 04:17:27;;;;;;;5.5;2.5;;;;;;;6.47;87.39648;938.9396;;;;
2019/10/08 04:20:06;;;;;;;7.2;2.6;;;;;;;6.5;87.27734;938.9395;;;;
2019/10/08 04:22:30;;;;;;;5.8;2.2;;;;;;;6.37;87.55664;938.9202;;;;
2019/10/08 04:24:46;;;;;;;7.1;2.2;;;;;;;6.32;87.97559;938.8967;;;;
2019/10/08 04:27:14;;;;;;;8.6;2.6;;;;;;;6.39;87.53613;938.9031;;;;
2019/10/08 04:29:43;;;;;;;5.8;2.5;;;;;;;6.48;87.10254;938.8709;;;;
2019/10/08 04:34:36;;;;;;;6.4;2.4;;;;;;;6.5;86.79102;938.8803;;;;
2019/10/08 04:36:59;;;;;;;7.3;3.2;;;;;;;6.39;87.03906;938.8478;;;;
2019/10/08 04:39:33;;;;;;;7.6;3;;;;;;;6.38;86.85547;938.8467;;;;
2019/10/08 04:41:54;;;;;;;6.1;3.1;;;;;;;6.27;87.32031;938.8083;;;;
2019/10/08 04:44:19;;;;;;;6.4;2.8;;;;;;;6.12;87.66309;938.8056;;;;
2019/10/08 04:47:12;;;;;;;6.8;4.4;;;;;;;6.31;87.06738;938.769;;;;
2019/10/08 04:49:37;;;;;;;6.5;2.7;;;;;;;6.42;86.72754;938.7364;;;;
2019/10/08 04:52:05;;;;;;;6.6;3;;;;;;;6.51;86.04492;938.7609;;;;
2019/10/08 04:54:37;;;;;;;8.4;4;;;;;;;6.53;85.87988;938.7719;;;;
2019/10/08 04:57:01;;;;;;;6.5;4.5;;;;;;;6.5;86.40625;938.6959;;;;
2019/10/08 04:59:28;;;;;;;8.4;4.9;;;;;;;6.47;86.47852;938.7695;;;;
2019/10/08 05:01:58;;;;;;;10;5.3;;;;;;;6.43;86.86719;938.8397;;;;
2019/10/08 05:04:32;;;;;;;11.4;4.9;;;;;;;6.44;86.7334;938.847;;;;
2019/10/08 05:06:57;;;;;;;10.7;4.7;;;;;;;6.49;86.53809;938.8926;;;;
2019/10/08 05:09:26;;;;;;;7.2;3.7;;;;;;;6.5;86.51953;938.9214;;;;
2019/10/08 05:11:48;;;;;;;9.6;4.1;;;;;;;6.54;86.09668;938.8947;;;;
2019/10/08 05:14:44;;;;;;;11.6;3.8;;;;;;;6.44;86.45996;938.9047;;;;
2019/10/08 05:17:09;;;;;;;8.8;4.3;;;;;;;6.45;86.38281;938.9191;;;;
2019/10/08 05:19:37;;;;;;;12.9;6.5;;;;;;;6.44;86.14355;938.8755;;;;
2019/10/08 05:22:11;;;;;;;14;6.3;;;;;;;6.39;86.17969;938.8652;;;;
2019/10/08 05:24:34;;;;;;;7.5;5;;;;;;;6.34;86.22656;938.8608;;;;
2019/10/08 05:26:57;;;;;;;6.6;3.4;;;;;;;6.37;85.85938;938.8529;;;;
2019/10/08 05:29:28;;;;;;;3.4;2.5;;;;;;;6.18;86.4541;938.8223;;;;
2019/10/08 05:31:53;;;;;;;8.8;2.7;;;;;;;6.27;86.49512;938.8369;;;;
2019/10/08 05:34:20;;;;;;;10.7;2.9;;;;;;;6.28;86.12305;938.8909;;;;
2019/10/08 05:36:46;;;;;;;7;2.6;;;;;;;6.12;86.74609;938.9028;;;;
2019/10/08 05:39:14;;;;;;;9.3;3.7;;;;;;;6.01;87.89941;938.918;;;;
2019/10/08 05:41:45;;;;;;;7.1;3;;;;;;;5.98;87.8916;938.8876;;;;
2019/10/08 05:44:11;;;;;;;6.4;3.1;;;;;;;5.98;87.53223;938.8395;;;;
2019/10/08 05:46:40;;;;;;;5.8;2.8;;;;;;;6.06;87.23047;938.8704;;;;
2019/10/08 05:49:07;;;;;;;7.9;2.5;;;;;;;6.02;87.25684;938.7508;;;;
2019/10/08 05:51:39;;;;;;;7;2.4;;;;;;;6.12;86.80273;938.8191;;;;
2019/10/08 05:54:09;;;;;;;8;2.8;;;;;;;6.08;86.82715;938.7951;;;;
2019/10/08 05:56:36;;;;;;;7.4;3;;;;;;;5.93;87.81445;938.6816;;;;
2019/10/08 05:59:02;;;;;;;12.1;4.3;;;;;;;6.09;86.91016;938.8071;;;;
2019/10/08 06:01:27;;;;;;;11.1;5;;;;;;;6.01;87.26465;938.7414;;;;
2019/10/08 06:04:02;;;;;;;6.4;4.1;;;;;;;6.11;87.09473;938.6868;;;;
2019/10/08 06:06:25;;;;;;;17.7;11.4;;;;;;;5.97;87.59863;938.7159;;;;
2019/10/08 06:09:18;;;;;;;15.3;11.8;;;;;;;5.97;87.82422;938.7081;;;;
2019/10/08 06:11:51;;;;;;;9.6;6.9;;;;;;;5.96;87.83203;938.7133;;;;
2019/10/08 06:14:18;;;;;;;12.7;5.9;;;;;;;6;88.04395;938.6305;;;;
2019/10/08 06:16:51;;;;;;;12;4.2;;;;;;;6.17;87.55957;938.7539;;;;
2019/10/08 06:19:15;;;;;;;9.3;3.8;;;;;;;6.31;87.2373;938.7888;;;;
2019/10/08 06:21:48;;;;;;;7;3.1;;;;;;;6.47;86.4082;938.6697;;;;
2019/10/08 06:24:15;;;;;;;7.1;3.2;;;;;;;6.36;87.38184;938.7313;;;;
2019/10/08 06:26:46;;;;;;;10;3.8;;;;;;;6.5;87.35449;938.646;;;;
2019/10/08 06:29:06;;;;;;;10.8;3.9;;;;;;;6.58;86.80762;938.5856;;;;
2019/10/08 06:31:34;;;;;;;8.5;2.9;;;;;;;6.85;86.55469;938.546;;;;
2019/10/08 06:34:17;;;;;;;7.2;2.2;;;;;;;7.07;85.69238;938.5047;;;;
2019/10/08 06:36:47;;;;;;;6.6;2.1;;;;;;;7.37;84.7334;938.4807;;;;
2019/10/08 06:39:30;;;;;;;7.6;2.3;;;;;;;7.54;82.08984;938.4766;;;;
2019/10/08 06:41:50;;;;;;;5.8;2.3;;;;;;;7.67;81.92188;938.5295;;;;
2019/10/08 06:44:25;;;;;;;9.5;2.5;;;;;;;7.78;81.56934;938.4614;;;;
2019/10/08 06:46:50;;;;;;;6.3;1.9;;;;;;;7.94;81.96191;938.4124;;;;
2019/10/08 06:49:25;;;;;;;8.5;2.5;;;;;;;8.09;81.70703;938.4719;;;;
2019/10/08 06:51:52;;;;;;;8.8;2.6;;;;;;;8.12;81.98633;938.4589;;;;
2019/10/08 06:54:17;;;;;;;4.7;2.2;;;;;;;8.04;81.3584;938.5359;;;;
2019/10/08 06:56:50;;;;;;;10.5;2.7;;;;;;;8.08;81.22852;938.4811;;;;
2019/10/08 06:59:22;;;;;;;8;2.5;;;;;;;8.18;81.08887;938.4425;;;;
2019/10/08 07:01:48;;;;;;;10.5;2.3;;;;;;;8.05;81.33691;938.4877;;;;
2019/10/08 07:04:21;;;;;;;3.7;1.8;;;;;;;8.33;81.04785;938.5082;;;;
2019/10/08 07:06:53;;;;;;;5.3;2.4;;;;;;;8.28;81.0166;938.478;;;;
2019/10/08 07:09:24;;;;;;;6.7;2.6;;;;;;;8.29;81.40625;938.418;;;;
2019/10/08 07:11:53;;;;;;;4.2;2.4;;;;;;;8.6;82.02051;938.4024;;;;
2019/10/08 07:14:27;;;;;;;11.6;4.6;;;;;;;8.78;79.71094;938.4097;;;;
2019/10/08 07:16:59;;;;;;;12;5.1;;;;;;;8.81;79.24023;938.2969;;;;
2019/10/08 07:19:28;;;;;;;11.8;4;;;;;;;8.93;78.36523;938.2394;;;;
2019/10/08 07:22:00;;;;;;;16;9.8;;;;;;;8.74;78.16016;938.3273;;;;
2019/10/08 07:27:00;;;;;;;8.3;3.1;;;;;;;8.99;78.28516;938.2545;;;;
2019/10/08 07:29:26;;;;;;;7.8;2.7;;;;;;;9.02;78.61816;938.2274;;;;
2019/10/08 07:31:59;;;;;;;9;2.6;;;;;;;9.24;78.74902;938.1165;;;;
2019/10/08 07:34:24;;;;;;;4.8;3.1;;;;;;;9.41;77.62988;938.2642;;;;
2019/10/08 07:36:53;;;;;;;6.6;3;;;;;;;9.5;77.56836;938.2349;;;;
2019/10/08 07:39:24;;;;;;;9.8;2.7;;;;;;;9.61;76.57422;938.2238;;;;
2019/10/08 07:41:58;;;;;;;6.5;2.5;;;;;;;9.56;76.87305;938.2166;;;;
2019/10/08 07:44:24;;;;;;;6.5;2.5;;;;;;;9.91;75.98828;938.1864;;;;
2019/10/08 07:46:55;;;;;;;5.1;2.2;;;;;;;10.02;75.16309;938.1816;;;;
2019/10/08 07:49:22;;;;;;;11.3;2.9;;;;;;;10.15;74.56934;938.1415;;;;
2019/10/08 07:51:53;;;;;;;10.8;3.6;;;;;;;10.29;73.21387;938.0418;;;;
2019/10/08 07:54:22;;;;;;;4.1;2.3;;;;;;;10.27;72.65137;938.0377;;;;
2019/10/08 07:56:51;;;;;;;10.3;2.5;;;;;;;10.24;72.15527;938.0667;;;;
2019/10/08 07:59:23;;;;;;;6.5;1.9;;;;;;;10.37;74.02637;938.0609;;;;
2019/10/08 08:02:01;;;;;;;7.3;2.6;;;;;;;10.59;72.92188;938.0608;;;;
2019/10/08 08:04:41;;;;;;;8.6;2.6;;;;;;;10.75;72.92578;938.0402;;;;
2019/10/08 08:07:12;;;;;;;3.3;1.8;;;;;;;10.75;71.1543;938.0672;;;;
2019/10/08 08:09:37;;;;;;;6.7;2.6;;;;;;;10.85;72.00488;938.0468;;;;
2019/10/08 08:12:09;;;;;;;5.4;2;;;;;;;10.65;70.5;937.9692;;;;
2019/10/08 08:14:49;;;;;;;7.1;2.2;;;;;;;10.53;72.54688;938.0683;;;;
2019/10/08 08:17:20;;;;;;;4.2;1.6;;;;;;;10.7;71.36328;937.945;;;;
2019/10/08 08:19:54;;;;;;;4.6;1.6;;;;;;;10.86;70.53516;937.9777;;;;
2019/10/08 08:22:18;;;;;;;8.2;2;;;;;;;11.07;68.29199;937.95;;;;
2019/10/08 08:24:57;;;;;;;8.8;2.3;;;;;;;11.45;70.20605;937.9528;;;;
2019/10/08 08:27:32;;;;;;;2.5;1.2;;;;;;;11.5;65.24805;937.8239;;;;
2019/10/08 08:29:58;;;;;;;4.6;1.3;;;;;;;11.66;66.68066;937.7907;;;;
2019/10/08 08:32:27;;;;;;;7.3;1.9;;;;;;;11.68;65.37891;937.7852;;;;
2019/10/08 08:34:54;;;;;;;2.9;1.5;;;;;;;11.43;66.1416;937.7838;;;;
2019/10/08 08:37:27;;;;;;;10;1.9;;;;;;;11.39;66.24902;937.7601;;;;
2019/10/08 08:39:59;;;;;;;5.5;1.8;;;;;;;11.5;67.2627;937.709;;;;
2019/10/08 08:42:20;;;;;;;5.6;1.6;;;;;;;11.65;67.10254;937.7037;;;;
2019/10/08 08:44:50;;;;;;;5.6;1.9;;;;;;;11.54;66.54785;937.6973;;;;
2019/10/08 08:47:26;;;;;;;8.3;2.7;;;;;;;11.73;68.12305;937.7942;;;;
2019/10/08 08:49:52;;;;;;;9.2;2.7;;;;;;;12;69.66602;937.771;;;;
2019/10/08 08:56:21;;;;;;;7.7;2.4;;;;;;;12.1;67.6084;937.7117;;;;
2019/10/08 08:58:52;;;;;;;9.1;2.6;;;;;;;12.09;68.72949;937.7004;;;;
2019/10/08 09:01:15;;;;;;;6.8;2.6;;;;;;;12.09;67.78906;937.6342;;;;
2019/10/08 09:03:50;;;;;;;3.5;1.8;;;;;;;11.56;68.5293;937.6305;;;;
2019/10/08 09:06:19;;;;;;;3.2;1.2;;;;;;;11.84;65.68945;937.6524;;;;
2019/10/08 09:08:50;;;;;;;3.3;1.7;;;;;;;11.91;69.59277;937.6973;;;;
2019/10/08 09:11:16;;;;;;;4.8;1.5;;;;;;;12.24;69.23438;937.4705;;;;
2019/10/08 09:13:56;;;;;;;4.3;1.6;;;;;;;12.55;70.7627;937.4359;;;;
2019/10/08 09:16:32;;;;;;;3.6;1.5;;;;;;;12.74;67.80957;937.3978;;;;
2019/10/08 09:18:58;;;;;;;4.3;1.4;;;;;;;12.92;69.33203;937.4395;;;;
2019/10/08 09:21:27;;;;;;;2.5;1.4;;;;;;;12.27;68.18359;937.4106;;;;
2019/10/08 09:23:57;;;;;;;2.8;1.3;;;;;;;12.34;68.19531;937.3253;;;;
2019/10/08 09:26:28;;;;;;;3.2;1.5;;;;;;;12.13;70.11035;937.2864;;;;
2019/10/08 09:28:59;;;;;;;3.5;1.3;;;;;;;12.44;69.64453;937.2946;;;;
2019/10/08 09:31:25;;;;;;;4.2;1.3;;;;;;;12.61;68.30664;937.3121;;;;
2019/10/08 09:33:57;;;;;;;5.7;1.5;;;;;;;12.59;66.11133;937.2722;;;;
2019/10/08 09:36:21;;;;;;;4.4;1.3;;;;;;;12.83;63.43945;937.2511;;;;
2019/10/08 09:38:56;;;;;;;7.3;2;;;;;;;12.71;65.33887;937.2021;;;;
2019/10/08 09:41:26;;;;;;;4.8;1.8;;;;;;;12.93;64.83301;937.219;;;;
2019/10/08 09:44:03;;;;;;;7.2;3;;;;;;;13.47;64.45117;937.1141;;;;
2019/10/08 09:49:27;;;;;;;7;2.1;;;;;;;13.18;65.97168;937.1096;;;;
2019/10/08 09:52:15;;;;;;;10.5;2.5;;;;;;;13.45;63.25488;937.0109;;;;
2019/10/08 09:54:53;;;;;;;3.6;1.4;;;;;;;13.11;60.02344;937.0942;;;;
2019/10/08 09:57:24;;;;;;;4.3;1.4;;;;;;;13.34;61.7666;937.0591;;;;
2019/10/08 09:59:50;;;;;;;4;1.5;;;;;;;13.98;59.36035;936.9914;;;;
2019/10/08 10:02:22;;;;;;;2.8;1.5;;;;;;;13.93;57.13477;936.9733;;;;
2019/10/08 10:04:45;;;;;;;13.2;2;;;;;;;14.49;60.34082;936.913;;;;
2019/10/08 10:07:15;;;;;;;4.9;1.4;;;;;;;14.59;58.34863;936.9163;;;;
2019/10/08 10:09:46;;;;;;;4.7;1.4;;;;;;;14.85;59.97656;936.8416;;;;
2019/10/08 10:12:10;;;;;;;4.1;1.2;;;;;;;15.13;58.36328;936.8448;;;;
2019/10/08 10:14:38;;;;;;;3.1;1.3;;;;;;;15.24;55.49414;936.8254;;;;
2019/10/08 10:17:09;;;;;;;5.5;1.6;;;;;;;15.56;57.84277;936.7692;;;;
2019/10/08 10:19:41;;;;;;;4.3;1.4;;;;;;;15.24;55.76953;936.6892;;;;
2019/10/08 10:22:14;;;;;;;6;1.6;;;;;;;14.08;56.98047;936.7477;;;;
2019/10/08 10:24:40;;;;;;;4;1.6;;;;;;;13.52;58.95215;936.6611;;;;
2019/10/08 10:27:20;;;;;;;5.7;1.5;;;;;;;14;58.67285;936.6438;;;;
2019/10/08 10:29:43;;;;;;;3.3;1.6;;;;;;;14.37;59.29883;936.6691;;;;
2019/10/08 10:32:21;;;;;;;3.9;1.9;;;;;;;14.24;55.90625;936.6228;;;;
2019/10/08 10:34:55;;;;;;;6.2;2.5;;;;;;;14.24;56.27637;936.6195;;;;
2019/10/08 10:37:21;;;;;;;6.2;2.8;;;;;;;14.55;56.99609;936.5776;;;;
2019/10/08 10:40:00;;;;;;;8.2;3.7;;;;;;;14.29;57.57227;936.5239;;;;
2019/10/08 10:42:38;;;;;;;5.4;2.5;;;;;;;14.57;57.55176;936.5262;;;;
2019/10/08 10:45:07;;;;;;;5.5;2;;;;;;;14.53;56.42773;936.4745;;;;
2019/10/08 10:48:31;;;;;;;5.6;1.8;;;;;;;14.52;55.9209;936.4817;;;;
2019/10/08 10:50:07;;;;;;;4.4;1.9;;;;;;;14.92;55.00195;936.348;;;;
2019/10/08 10:52:38;;;;;;;3.3;1.7;;;;;;;14.74;54.40332;936.3759;;;;
2019/10/08 10:55:21;;;;;;;4.2;1.9;;;;;;;14.48;55.7998;936.3691;;;;
2019/10/08 10:58:22;;;;;;;3;1.8;;;;;;;14.49;54.87891;936.2953;;;;
2019/10/08 11:00:53;;;;;;;5.4;2.1;;;;;;;14.95;57.49805;936.1936;;;;
2019/10/08 11:03:22;;;;;;;4.3;1.6;;;;;;;14.64;53.87207;936.1764;;;;
2019/10/08 11:06:01;;;;;;;13.9;5.9;;;;;;;14.54;55.49512;936.1122;;;;
2019/10/08 11:08:27;;;;;;;7.3;2.2;;;;;;;15.01;55.78711;936.0374;;;;
2019/10/08 11:11:23;;;;;;;5.2;1.7;;;;;;;15.24;55.05566;935.98;;;;
2019/10/08 11:14:00;;;;;;;6.6;1.5;;;;;;;15.5;56.99219;935.8822;;;;
2019/10/08 11:16:29;;;;;;;5.2;1.6;;;;;;;15.81;53.58984;935.8416;;;;
2019/10/08 11:18:59;;;;;;;4.3;1.5;;;;;;;16.16;55.74805;935.8376;;;;
2019/10/08 11:21:25;;;;;;;4.6;1.7;;;;;;;16.46;52.73047;935.7514;;;;
2019/10/08 11:23:57;;;;;;;7.5;2.5;;;;;;;16.89;55.72559;935.6472;;;;
2019/10/08 11:26:28;;;;;;;7.2;2.2;;;;;;;17.03;50.35449;935.6881;;;;
2019/10/08 11:29:02;;;;;;;4.1;1.4;;;;;;;16.98;51.98242;935.6688;;;;
2019/10/08 11:31:32;;;;;;;3.7;1.6;;;;;;;16.95;53.20703;935.6806;;;;
2019/10/08 11:34:01;;;;;;;4.2;1.6;;;;;;;17.03;49.47363;935.6102;;;;
2019/10/08 11:36:25;;;;;;;2.4;1.4;;;;;;;17.28;50.78906;935.6433;;;;
2019/10/08 11:41:18;;;;;;;4.5;1.9;;;;;;;17.85;50.55273;935.4428;;;;
2019/10/08 11:43:42;;;;;;;6.2;1.7;;;;;;;17.96;52.35352;935.4412;;;;
2019/10/08 11:46:17;;;;;;;2.6;1.4;;;;;;;17.82;49.94629;935.3797;;;;
2019/10/08 11:48:42;;;;;;;3.3;1.9;;;;;;;17.8;51.99902;935.3228;;;;
2019/10/08 11:51:14;;;;;;;5.9;1.7;;;;;;;17.8;52.01074;935.2221;;;;
2019/10/08 11:53:44;;;;;;;5.4;1.9;;;;;;;17.77;52.2959;935.1875;;;;
2019/10/08 11:56:29;;;;;;;7.1;1.7;;;;;;;17.98;51.50879;935.1255;;;;
2019/10/08 11:58:41;;;;;;;5.8;1.4;;;;;;;19.27;49.64551;935.0726;;;;
2019/10/08 12:01:15;;;;;;;3.2;1.1;;;;;;;21.42;43.2373;935.0405;;;;
2019/10/08 12:03:38;;;;;;;5;1.2;;;;;;;24.28;35.35352;935.0605;;;;
2019/10/08 12:06:08;;;;;;;3.1;1.3;;;;;;;26.31;31.86914;934.843;;;;
2019/10/08 12:08:44;;;;;;;2.9;1.2;;;;;;;29.14;28.00879;934.8713;;;;
2019/10/08 12:11:08;;;;;;;1.9;1.3;;;;;;;29.15;25.71191;934.8408;;;;
2019/10/08 12:13:45;;;;;;;3.9;1.1;;;;;;;30.63;26.39355;934.823;;;;
2019/10/08 12:19:18;;;;;;;2.7;1.1;;;;;;;30.32;24.34473;934.7838;;;;
2019/10/08 12:21:45;;;;;;;2.6;1.1;;;;;;;31.08;22.96289;934.6583;;;;
2019/10/08 12:24:30;;;;;;;2.7;1.3;;;;;;;30.39;25.78223;934.6484;;;;
2019/10/08 12:27:11;;;;;;;2.8;1.2;;;;;;;32.59;23.36328;934.6334;;;;
2019/10/08 12:30:15;;;;;;;2.4;1;;;;;;;33.81;21.42871;934.5608;;;;
2019/10/08 12:32:41;;;;;;;3.9;1.1;;;;;;;35.17;20.7207;934.4379;;;;
2019/10/08 12:35:11;;;;;;;3.2;1;;;;;;;33.53;20.75488;934.4615;;;;
2019/10/08 12:37:48;;;;;;;2.5;1.1;;;;;;;30.01;25.10449;934.379;;;;
2019/10/08 12:40:09;;;;;;;4.4;1.3;;;;;;;28.7;28.04102;934.4615;;;;
2019/10/08 12:43:19;;;;;;;3.2;1.4;;;;;;;29.83;26.21582;934.3284;;;;
2019/10/08 12:45:36;;;;;;;2.4;1.7;;;;;;;30.08;24.75;934.2732;;;;
2019/10/08 12:48:02;;;;;;;4.9;1.5;;;;;;;30.47;24.52051;934.267;;;;
2019/10/08 12:50:33;;;;;;;1.5;1.1;;;;;;;29.29;24.93262;934.1836;;;;
2019/10/08 12:52:57;;;;;;;4.3;1.2;;;;;;;29.28;26.38574;934.1541;;;;
2019/10/08 12:55:47;;;;;;;3.2;1;;;;;;;31.89;24.26172;934.0979;;;;
2019/10/08 12:57:55;;;;;;;2.4;1;;;;;;;32.64;23.12598;934.0381;;;;
2019/10/08 13:00:27;;;;;;;2.1;1;;;;;;;33.29;22.16113;934.0071;;;;
2019/10/08 13:02:50;;;;;;;3;1;;;;;;;33.61;20.24121;934.0499;;;;
2019/10/08 13:05:19;;;;;;;1.1;0.9;;;;;;;31.45;23.44824;933.9205;;;;
2019/10/08 13:07:50;;;;;;;1.6;0.8;;;;;;;31.59;22.86914;933.9191;;;;
2019/10/08 13:10:19;;;;;;;2;0.9;;;;;;;32.26;22.23145;933.9022;;;;
2019/10/08 13:12:47;;;;;;;1.9;0.8;;;;;;;32.98;22.71094;933.8856;;;;
2019/10/08 13:15:11;;;;;;;4.4;1.2;;;;;;;32.63;22.2373;933.8925;;;;
2019/10/08 13:17:41;;;;;;;3.2;1;;;;;;;33.25;22.41211;933.8649;;;;
2019/10/08 13:20:17;;;;;;;2.5;1;;;;;;;34.04;20.85059;933.848;;;;
2019/10/08 13:22:43;;;;;;;2.6;1;;;;;;;33.11;20.53125;933.7717;;;;
2019/10/08 13:25:16;;;;;;;2.9;1.1;;;;;;;34.15;21.3125;933.8016;;;;
2019/10/08 13:27:49;;;;;;;2.6;0.9;;;;;;;34.06;22.24707;933.7708;;;;
2019/10/08 13:30:26;;;;;;;2.3;1;;;;;;;33.89;20.30176;933.7407;;;;
2019/10/08 13:32:51;;;;;;;1.8;1;;;;;;;33.81;20.86328;933.7789;;;;
2019/10/08 13:35:30;;;;;;;3;0.9;;;;;;;33.75;21.77441;933.8002;;;;
2019/10/08 13:37:50;;;;;;;5.3;1.2;;;;;;;33.31;21.82617;933.783;;;;
2019/10/08 13:40:19;;;;;;;3.5;1.1;;;;;;;33.21;23.50293;933.7381;;;;
2019/10/08 13:42:49;;;;;;;0.9;0.8;;;;;;;33.34;22.32031;933.6799;;;;
2019/10/08 13:45:14;;;;;;;4.1;1.1;;;;;;;30.59;24.63477;933.7239;;;;
2019/10/08 13:47:47;;;;;;;5.4;1.1;;;;;;;30.26;27.68555;933.7715;;;;
2019/10/08 13:50:14;;;;;;;2.8;1.1;;;;;;;32.59;23.29199;933.7969;;;;
2019/10/08 13:52:43;;;;;;;3.9;1.2;;;;;;;34.52;21.58301;933.7804;;;;
2019/10/08 13:55:21;;;;;;;2.5;0.9;;;;;;;35.14;20.62207;933.8453;;;;
2019/10/08 13:57:53;;;;;;;2.2;0.9;;;;;;;35.49;21.4834;933.8455;;;;
2019/10/08 14:00:21;;;;;;;3.1;1;;;;;;;35.39;20.28418;933.7899;;;;
2019/10/08 14:02:50;;;;;;;1.8;0.9;;;;;;;34.88;20.94922;933.8208;;;;
2019/10/08 14:05:21;;;;;;;2.3;0.9;;;;;;;33.7;22.33789;933.7975;;;;
2019/10/08 14:07:47;;;;;;;1.5;0.8;;;;;;;32.14;23.62793;933.8308;;;;
2019/10/08 14:10:23;;;;;;;3.2;0.9;;;;;;;30.26;27.12402;933.7502;;;;
2019/10/08 14:16:36;;;;;;;1.7;0.9;;;;;;;27.24;32.43262;933.8261;;;;
2019/10/08 14:19:03;;;;;;;2.7;0.9;;;;;;;26.41;33.44922;933.9177;;;;
2019/10/08 14:21:31;;;;;;;3.8;1.1;;;;;;;25.69;35.46484;933.9387;;;;
2019/10/08 14:24:07;;;;;;;2.6;1;;;;;;;25.02;37.46484;933.9088;;;;
2019/10/08 14:26:30;;;;;;;2.4;1.1;;;;;;;24.3;39.3125;933.9916;;;;
2019/10/08 14:29:03;;;;;;;3.6;1;;;;;;;23.75;40.13477;933.889;;;;
2019/10/08 14:31:39;;;;;;;2;1.3;;;;;;;23.22;41.2627;933.895;;;;
2019/10/08 14:34:08;;;;;;;5.2;1.4;;;;;;;22.87;42.70996;933.84;;;;
2019/10/08 14:36:33;;;;;;;3.7;1.2;;;;;;;22.49;44.57422;933.8428;;;;
2019/10/08 14:39:04;;;;;;;3.9;1.3;;;;;;;22.15;46.75684;933.8787;;;;
2019/10/08 14:41:36;;;;;;;4.3;1.3;;;;;;;21.91;46.27441;933.834;;;;
2019/10/08 14:44:13;;;;;;;2.5;1.1;;;;;;;21.73;48.08105;933.8008;;;;
2019/10/08 14:46:48;;;;;;;2.9;1.2;;;;;;;21.53;49.38477;933.89;;;;
2019/10/08 14:49:16;;;;;;;3.3;1.4;;;;;;;21.37;50.4541;933.8613;;;;
2019/10/08 14:51:42;;;;;;;4.6;1.3;;;;;;;21.22;49.33691;933.8561;;;;
2019/10/08 14:54:07;;;;;;;2.9;1.3;;;;;;;21.2;48.86719;933.8811;;;;
2019/10/08 14:56:32;;;;;;;3;1.2;;;;;;;21.23;50.22852;933.8558;;;;
2019/10/08 14:58:59;;;;;;;5.2;1.4;;;;;;;21.29;49.77734;933.791;;;;
2019/10/08 15:01:31;;;;;;;3.9;1.4;;;;;;;21.28;52.45703;933.8131;;;;
2019/10/08 15:04:00;;;;;;;5.6;1.6;;;;;;;21.21;53.70117;933.8077;;;;
2019/10/08 15:06:26;;;;;;;7.5;1.5;;;;;;;21.09;53.38184;933.8091;;;;
2019/10/08 15:08:52;;;;;;;9.3;1.7;;;;;;;20.89;55.43848;933.7557;;;;
2019/10/08 15:11:22;;;;;;;12.4;1.8;;;;;;;20.77;56.13574;933.748;;;;
2019/10/08 15:13:53;;;;;;;9.4;1.9;;;;;;;20.6;56.71094;933.807;;;;
2019/10/08 15:16:21;;;;;;;2.8;1.3;;;;;;;20.35;57.60254;933.8056;;;;
2019/10/08 15:18:51;;;;;;;8.4;1.6;;;;;;;20.2;58.78418;933.7654;;;;
2019/10/08 15:21:15;;;;;;;5.6;1.9;;;;;;;19.9;60.40137;933.7527;;;;
2019/10/08 15:23:48;;;;;;;6;2.1;;;;;;;19.74;61.62598;933.6867;;;;
2019/10/08 15:26:19;;;;;;;5;2.2;;;;;;;19.71;62.32031;933.6499;;;;
2019/10/08 15:28:51;;;;;;;4.4;2.3;;;;;;;19.51;63.00293;933.6551;;;;
2019/10/08 15:31:15;;;;;;;5.2;1.9;;;;;;;19.35;63.88965;933.6581;;;;
2019/10/08 15:33:39;;;;;;;5.4;2.1;;;;;;;19.44;63.99707;933.6475;;;;
2019/10/08 15:36:20;;;;;;;7.2;2.2;;;;;;;19.52;64.6377;933.658;;;;
2019/10/08 15:39:15;;;;;;;6.9;2.4;;;;;;;19.22;64.44238;933.5378;;;;
2019/10/08 15:41:47;;;;;;;8;2.5;;;;;;;19.03;65.6709;933.6122;;;;
2019/10/08 15:44:22;;;;;;;11;2.7;;;;;;;19.08;65.88867;933.622;;;;
2019/10/08 15:46:51;;;;;;;7.3;2.1;;;;;;;19.22;65.94434;933.574;;;;
2019/10/08 15:49:14;;;;;;;26;3.2;;;;;;;19.35;65.17188;933.6355;;;;
2019/10/08 15:51:38;;;;;;;18.4;3.7;;;;;;;19.35;65.42773;933.6622;;;;
2019/10/08 15:54:04;;;;;;;6.2;2.3;;;;;;;19.29;64.81348;933.5331;;;;
2019/10/08 15:59:28;;;;;;;8.8;2.2;;;;;;;19.34;65.56641;933.6497;;;;
2019/10/08 16:01:59;;;;;;;6.9;2.2;;;;;;;19.3;66.48145;933.6855;;;;
2019/10/08 16:04:03;;;;;;;11.4;2.6;;;;;;;19.24;66.75293;933.7317;;;;
2019/10/08 16:06:27;;;;;;;8.1;3.1;;;;;;;19.19;67.44336;933.7137;;;;
2019/10/08 16:08:56;;;;;;;9.1;4;;;;;;;19.13;68.09668;933.7075;;;;
2019/10/08 16:11:23;;;;;;;16.1;4.8;;;;;;;19.11;68.31738;933.733;;;;
2019/10/08 16:13:54;;;;;;;9.3;4.1;;;;;;;19.04;68.1875;933.7603;;;;
2019/10/08 16:16:27;;;;;;;7;2.8;;;;;;;18.94;68.7666;933.7413;;;;
2019/10/08 16:18:51;;;;;;;9.7;4.7;;;;;;;18.89;68.14063;933.7676;;;;
2019/10/08 16:21:21;;;;;;;10.1;4.3;;;;;;;18.84;67.84277;933.7587;;;;
2019/10/08 16:23:45;;;;;;;6.9;3.1;;;;;;;18.79;68.48633;933.8067;;;;
2019/10/08 16:32:13;;;;;;;8.1;1.5;;;;;;;18.37;68.00293;933.7863;;;;
2019/10/08 16:33:55;;;;;;;15.8;2;;;;;;;18.24;68.59961;933.7559;;;;